FIMP METAR and TAF | Updated Today

FIMP METAR

Sir Seewoosagur Ramgoolam International Airport

Observation time: 22 min. ago

FIMP 052100Z 07004KT 9999 SCT017 26/23 Q1013

Need help? Read our tutorial on how to read METARs or read the parsed version below.

Sir Seewoosagur Ramgoolam International Airport (FIMP) METAR

  • Weather conditions on Sun, 05 Feb 2023 21:00:00 +0000 (22 min. ago):
  • Present conditions: Dry
  • Clouds: Scattered at 518 meters
  • Visibility: Greater than 10 km
  • Wind: 70 degrees at 4 knots
  • Temperature: 26 celsius
  • Dew point: 23 celsius
  • Pressure: 1013 millibars
  • Remarks: None


Useful to know...

FIMP TAF

Sir Seewoosagur Ramgoolam International Airport

TAF FIMP 051715Z 0518/0700 09010KT 9999 SCT015 TEMPO 0600/0603 7000 -SHRA FEW010 BKN014
Observation time: 4:07 hr. ago
Need help? Read our tutorial on how to read TAFs or read the parsed version below.

Parsed version of TAF for Sir Seewoosagur Ramgoolam International Airport (FIMP)

  • From 05 February at 18:00 UTC, to day 07 of the month at 00:00 UTC
  • Clouds: Scattered at 457 meters
  • Visibility: Greater than 10 km
  • Wind: 90 degrees at 10
  • Expected to arise temporarily, from 06 February at 00:00 UTC, to day 06 of the month at 03:00 UTC
  • Clouds: A few at 305 meters; broken sky at 427 meters
  • Visibility: 7000 meters
  • Other: Light showers of rain

Airports near FIMP

No airports found within 100nm radius.